Pagrindinis puslapis
METAR-TAF:

METAR-TAF

Oro uostai :

Abilene, Teksasas, Jungtinės Amerikos Valstijos

platuma: 32-24-37N, ilguma: 099-40-54W, Aukštis: 545 m

Dabartinis oras

Ataskaita buvo paskelbta 1 valandą ir 6 minutes, ne 07:52 UTC
Vėjas 5 kt iš Pietų
Temperatūra 23°C
Drėgmė 69%
Slėgis 1013 hPa
Matomumas: 16.1 km
Giedras dangus

METAR: KABI 020752Z 18005KT 10SM CLR 23/17 A2992 RMK AO2 SLP101 T02280167

Laikas: 03:58 (08:58 UTC)

Prognozė

Ataskaita buvo paskelbta 3 valandos ir 24 minutes, ne 05:34 UTC
Prognozė galioja nuo 02 metu 06 UTC su 03 metu 06 UTC
Vėjas 8 kt iš Pietų
Matomumas: 10 km
Su prošvaistėmis ne aukštis 25000 ft
Nuo 02 metu 1400 UTC
Vėjas 10 kt iš Pietų
Matomumas: 10 km
Su prošvaistėmis ne aukštis 25000 ft

TAF: KABI 020534Z 0206/0306 19008KT P6SM BKN250 FM021400 17010KT P6SM BKN250

Orai ataskaitas ir orų prognozės (METAR, TAF).

turimą stotys yra geltonos ir raudonos taškus žemėlapyje.

Perkelti pele per norėdami pamatyti stoties vardą.

Tada spustelėkite, norėdami matyti oro stebėjimo ir prognozės.

Norėdami pakeisti žemėlapį: spustelėkite ant žalios mygtukų su juodo kryžiaus žemyn,; žalią mygtuką su brūkšneliu, jei norite nutolinti; arba žalių rodyklių gretimoms žemėlapius.


METAR-TAF: